Terminal Aerodrome Forecast
Issued by NWS

Current Version | Previous Version | Text Only | Print | Product List | Glossary On
Versions: 1 2 3 4 5 6 7 8 9 10 11 12 13 14 15 16 17 18 19 20 21 22 23 24 25 26 27 28 29
000
FTAK31 PANC 261738
TAFAIL
TAF
PAIL 261738Z 2618/2718 01015KT P6SM SCT009 BKN200
     FM270600 02011KT P6SM VCSH BKN050
     FM271200 02011KT P6SM -SN OVC035=

USA.gov is the U.S. government's official web portal to all federal, state and local government web resources and services.